createdAt,value
2023-05-22T00:02:38.703Z,99.90
2023-05-22T00:06:44.650Z,99.90
2023-05-22T00:10:47.423Z,99.90
2023-05-22T00:14:50.534Z,99.90
2023-05-22T00:18:55.605Z,99.90
2023-05-22T00:23:01.250Z,99.90
2023-05-22T00:27:04.095Z,99.90
2023-05-22T00:31:06.985Z,99.90
2023-05-22T00:35:10.968Z,99.90
2023-05-22T00:39:15.869Z,99.90
2023-05-22T00:43:18.706Z,99.90
2023-05-22T00:47:23.701Z,99.90
2023-05-22T00:51:28.265Z,99.90
2023-05-22T00:55:32.567Z,99.90
2023-05-22T00:59:36.660Z,99.90
2023-05-22T01:03:44.568Z,99.90
2023-05-22T01:07:47.541Z,99.90
2023-05-22T01:12:12.128Z,99.90
2023-05-22T01:16:25.017Z,99.90
2023-05-22T01:20:32.091Z,99.90
2023-05-22T01:25:04.360Z,99.90
2023-05-22T01:29:23.131Z,99.70
2023-05-22T01:33:29.485Z,99.40
2023-05-22T01:37:33.194Z,98.80
2023-05-22T01:41:36.534Z,98.80
2023-05-22T01:45:39.872Z,98.70
2023-05-22T01:49:44.975Z,98.80
2023-05-22T01:53:55.213Z,99.10
2023-05-22T01:58:04.119Z,99.10
2023-05-22T02:02:09.714Z,99.50
2023-05-22T02:10:21.494Z,99.50
2023-05-22T02:14:24.750Z,99.50
2023-05-22T02:18:29.434Z,99.30
2023-05-22T02:22:33.843Z,99.40
2023-05-22T02:26:37.214Z,99.50
2023-05-22T02:30:40.491Z,99.80
2023-05-22T02:34:44.005Z,99.90
2023-05-22T02:38:48.181Z,99.90
2023-05-22T02:42:51.027Z,99.90
2023-05-22T02:46:54.250Z,99.90
2023-05-22T02:50:57.229Z,99.90
2023-05-22T02:55:01.461Z,99.90
2023-05-22T02:59:04.448Z,99.90
2023-05-22T03:03:08.252Z,99.90
2023-05-22T03:07:12.266Z,99.90
2023-05-22T03:11:16.653Z,99.90
2023-05-22T03:15:19.987Z,99.90
2023-05-22T03:19:24.173Z,99.90
2023-05-22T03:23:27.411Z,99.90
2023-05-22T03:27:31.925Z,99.90
2023-05-22T03:31:35.595Z,99.90
2023-05-22T03:35:44.490Z,99.90
2023-05-22T03:39:47.841Z,99.90
2023-05-22T03:44:03.115Z,99.90
2023-05-22T03:48:06.602Z,99.90
2023-05-22T03:52:11.149Z,99.90
2023-05-22T03:56:14.047Z,99.90
2023-05-22T04:00:19.676Z,99.90
2023-05-22T04:04:22.614Z,99.90
2023-05-22T04:08:26.963Z,99.90
2023-05-22T04:12:29.786Z,99.90
2023-05-22T04:16:34.073Z,99.90
2023-05-22T04:20:37.192Z,99.90
2023-05-22T04:24:40.638Z,99.90
2023-05-22T04:28:46.124Z,99.90
2023-05-22T04:32:50.379Z,99.90
2023-05-22T04:36:53.230Z,99.90
2023-05-22T04:40:56.083Z,99.90
2023-05-22T04:44:58.931Z,99.90
2023-05-22T04:49:03.253Z,99.90
2023-05-22T04:53:06.329Z,99.90
2023-05-22T04:57:09.618Z,99.90
2023-05-22T05:01:12.668Z,99.90
2023-05-22T05:05:16.914Z,99.90
2023-05-22T05:09:19.800Z,99.90
2023-05-22T05:13:22.673Z,99.90
2023-05-22T05:17:25.762Z,99.90
2023-05-22T05:21:31.429Z,99.90
2023-05-22T05:25:38.750Z,99.90
2023-05-22T05:29:42.477Z,99.90
2023-05-22T05:33:56.680Z,99.90
2023-05-22T05:38:08.190Z,99.50
2023-05-22T05:42:13.401Z,98.90
2023-05-22T05:46:16.640Z,98.30
2023-05-22T05:50:19.983Z,97.50
2023-05-22T05:54:26.322Z,97.00
2023-05-22T05:58:31.637Z,96.20
2023-05-22T06:02:49.667Z,95.90
2023-05-22T06:07:04.074Z,95.70
2023-05-22T06:11:29.781Z,95.10
2023-05-22T06:15:34.272Z,95.00
2023-05-22T06:19:37.461Z,94.70
2023-05-22T06:23:41.517Z,94.40
2023-05-22T06:27:45.834Z,94.60
2023-05-22T06:31:48.785Z,94.40
2023-05-22T06:35:55.433Z,94.40
2023-05-22T06:39:59.258Z,93.80
2023-05-22T06:44:17.462Z,94.60
2023-05-22T06:48:20.528Z,93.80
2023-05-22T06:52:43.726Z,94.50
2023-05-22T06:56:48.352Z,93.70
2023-05-22T07:00:55.311Z,94.30
2023-05-22T07:05:10.298Z,93.50
2023-05-22T07:09:24.512Z,93.50
2023-05-22T07:13:32.570Z,92.70
2023-05-22T07:18:01.950Z,92.70
2023-05-22T07:22:06.687Z,92.10
2023-05-22T07:26:12.603Z,92.70
2023-05-22T07:30:25.619Z,92.00
2023-05-22T07:34:34.249Z,91.40
2023-05-22T07:38:39.277Z,91.90
2023-05-22T07:42:42.269Z,91.70
2023-05-22T07:46:47.967Z,92.20
2023-05-22T07:50:56.503Z,91.50
2023-05-22T07:54:59.504Z,91.60
2023-05-22T07:59:03.794Z,92.20
2023-05-22T08:03:06.821Z,91.30
2023-05-22T08:11:49.733Z,90.30
2023-05-22T08:16:00.401Z,89.90
2023-05-22T08:20:06.872Z,89.80
2023-05-22T08:24:11.319Z,88.00
2023-05-22T08:28:14.209Z,87.10
2023-05-22T08:32:17.125Z,84.30
2023-05-22T08:36:20.234Z,80.70
2023-05-22T08:40:28.477Z,80.30
2023-05-22T08:44:31.410Z,80.40
2023-05-22T08:48:35.691Z,77.70
2023-05-22T08:52:48.033Z,77.30
2023-05-22T08:56:57.077Z,77.60
2023-05-22T09:01:00.972Z,75.90
2023-05-22T09:05:05.394Z,77.00
2023-05-22T09:09:08.317Z,76.60
2023-05-22T09:13:24.195Z,74.00
2023-05-22T09:17:27.652Z,72.00
2023-05-22T09:21:31.334Z,75.00
2023-05-22T09:25:34.311Z,75.20
2023-05-22T09:29:50.568Z,74.00
2023-05-22T09:33:56.079Z,74.50
2023-05-22T09:38:00.148Z,75.80
2023-05-22T09:42:03.018Z,74.00
2023-05-22T09:46:07.411Z,73.10
2023-05-22T09:50:11.010Z,71.50
2023-05-22T09:54:15.007Z,72.30
2023-05-22T09:58:20.736Z,71.00
2023-05-22T10:02:26.093Z,68.90
2023-05-22T10:06:29.431Z,67.10
2023-05-22T10:10:33.193Z,67.90
2023-05-22T10:14:37.019Z,69.30
2023-05-22T10:18:42.366Z,67.90
2023-05-22T10:22:45.836Z,69.70
2023-05-22T10:26:49.151Z,69.20
2023-05-22T10:30:59.483Z,70.10
2023-05-22T10:35:43.399Z,71.00
2023-05-22T10:39:57.261Z,68.80
2023-05-22T10:44:00.132Z,68.60
2023-05-22T10:48:04.691Z,68.60
2023-05-22T10:52:09.829Z,68.00
2023-05-22T10:56:13.838Z,67.60
2023-05-22T11:00:19.246Z,66.90
2023-05-22T11:04:26.680Z,65.60
2023-05-22T11:08:39.614Z,67.10
2023-05-22T11:12:42.519Z,67.20
2023-05-22T11:16:45.582Z,64.90
2023-05-22T11:20:48.688Z,65.80
2023-05-22T11:24:55.917Z,64.30
2023-05-22T11:29:02.397Z,62.60
2023-05-22T11:33:07.223Z,62.10
2023-05-22T11:37:11.322Z,61.90
2023-05-22T11:41:17.100Z,62.00
2023-05-22T11:45:20.217Z,60.20
2023-05-22T11:49:24.076Z,59.90
2023-05-22T11:53:27.047Z,59.10
2023-05-22T11:57:31.947Z,60.20
2023-05-22T12:01:36.246Z,59.70
2023-05-22T12:05:39.133Z,59.60
2023-05-22T12:09:43.212Z,59.90
2023-05-22T12:13:47.458Z,59.20
2023-05-22T12:17:50.345Z,59.90
2023-05-22T12:21:54.104Z,59.10
2023-05-22T12:26:01.416Z,58.80
2023-05-22T12:30:13.708Z,58.50
2023-05-22T12:34:18.797Z,59.60
2023-05-22T12:38:23.067Z,58.70
2023-05-22T12:42:26.239Z,58.90
2023-05-22T12:46:31.294Z,59.30
2023-05-22T12:50:34.206Z,59.20
2023-05-22T12:54:37.151Z,58.50
2023-05-22T12:58:39.898Z,58.70
2023-05-22T13:02:45.109Z,58.90
2023-05-22T13:07:01.533Z,58.00
2023-05-22T13:11:04.536Z,58.30
2023-05-22T13:15:08.486Z,59.10
2023-05-22T13:19:12.830Z,58.40
2023-05-22T13:23:15.767Z,59.00
2023-05-22T13:27:19.876Z,60.30
2023-05-22T13:31:22.705Z,58.40
2023-05-22T13:35:27.022Z,59.10
2023-05-22T13:39:29.844Z,59.50
2023-05-22T13:43:32.702Z,60.90
2023-05-22T13:47:35.898Z,60.50
2023-05-22T13:51:40.101Z,60.10
2023-05-22T13:55:42.982Z,59.10
2023-05-22T13:59:45.783Z,57.60
2023-05-22T14:03:48.677Z,57.70
2023-05-22T14:07:52.828Z,58.70
2023-05-22T14:11:57.750Z,58.60
2023-05-22T14:16:00.558Z,58.40
2023-05-22T14:20:04.143Z,57.40
2023-05-22T14:24:08.591Z,55.30
2023-05-22T14:28:11.510Z,56.10
2023-05-22T14:32:14.400Z,55.50
2023-05-22T14:36:17.874Z,55.20
2023-05-22T14:40:22.087Z,55.20
2023-05-22T14:44:25.003Z,56.20
2023-05-22T14:48:29.368Z,56.80
2023-05-22T14:52:32.241Z,57.20
2023-05-22T14:56:36.437Z,56.90
2023-05-22T15:00:39.260Z,57.50
2023-05-22T15:04:42.105Z,56.90
2023-05-22T15:08:44.884Z,58.00
2023-05-22T15:12:49.015Z,58.10
2023-05-22T15:16:51.833Z,58.60
2023-05-22T15:20:54.723Z,57.80
2023-05-22T15:25:07.822Z,57.60
2023-05-22T15:29:12.124Z,58.30
2023-05-22T15:33:15.805Z,58.40
2023-05-22T15:37:18.679Z,58.10
2023-05-22T15:41:21.776Z,58.20
2023-05-22T15:45:25.883Z,58.30
2023-05-22T15:49:31.044Z,58.80
2023-05-22T15:53:39.779Z,59.30
2023-05-22T15:57:42.772Z,59.60
2023-05-22T16:01:47.132Z,59.70
2023-05-22T16:05:50.807Z,60.00
2023-05-22T16:09:53.735Z,62.40
2023-05-22T16:13:56.539Z,62.30
2023-05-22T16:18:01.220Z,62.70
2023-05-22T16:22:04.713Z,65.40
2023-05-22T16:26:07.466Z,69.80
2023-05-22T16:30:11.376Z,72.50
2023-05-22T16:34:15.697Z,74.90
2023-05-22T16:38:18.755Z,78.00
2023-05-22T16:42:22.288Z,80.80
2023-05-22T16:46:25.186Z,82.60
2023-05-22T16:50:29.334Z,84.20
2023-05-22T16:54:32.122Z,87.00
2023-05-22T16:58:34.935Z,90.20
2023-05-22T17:02:38.337Z,91.70
2023-05-22T17:06:42.851Z,93.00
2023-05-22T17:10:45.774Z,94.20
2023-05-22T17:14:48.553Z,95.20
2023-05-22T17:18:52.904Z,95.50
2023-05-22T17:22:59.093Z,95.00
2023-05-22T17:27:03.378Z,95.50
2023-05-22T17:31:07.147Z,95.70
2023-05-22T17:35:10.075Z,95.70
2023-05-22T17:39:14.431Z,95.70
2023-05-22T17:43:19.133Z,95.60
2023-05-22T17:47:22.221Z,95.90
2023-05-22T17:51:25.473Z,96.30
2023-05-22T17:55:29.931Z,97.30
2023-05-22T17:59:33.769Z,97.00
2023-05-22T18:03:37.286Z,97.40
2023-05-22T18:07:40.615Z,97.20
2023-05-22T18:11:45.041Z,97.70
2023-05-22T18:15:49.239Z,97.80
2023-05-22T18:19:52.429Z,97.70
2023-05-22T18:23:56.450Z,98.90
2023-05-22T18:28:01.848Z,99.20
2023-05-22T18:32:05.258Z,98.80
2023-05-22T18:36:08.506Z,99.10
2023-05-22T18:40:12.698Z,99.40
2023-05-22T18:44:17.228Z,99.60
2023-05-22T18:48:20.871Z,99.60
2023-05-22T18:52:24.197Z,99.20
2023-05-22T18:56:27.245Z,99.70
2023-05-22T19:00:31.802Z,99.70
2023-05-22T19:04:34.905Z,99.90
2023-05-22T19:08:37.935Z,99.90
2023-05-22T19:12:41.035Z,99.90
2023-05-22T19:16:45.499Z,99.90
2023-05-22T19:20:48.764Z,99.90
2023-05-22T19:24:52.322Z,99.90
2023-05-22T19:28:59.402Z,99.90
2023-05-22T19:33:05.424Z,99.90
2023-05-22T19:37:10.834Z,99.90
2023-05-22T19:41:14.665Z,99.90
2023-05-22T19:45:20.910Z,99.90
2023-05-22T19:49:28.266Z,99.90
2023-05-22T19:53:32.686Z,99.90
2023-05-22T19:57:36.042Z,99.90
2023-05-22T20:01:39.284Z,99.90
2023-05-22T20:05:47.057Z,99.90
2023-05-22T20:09:50.494Z,99.90
2023-05-22T20:13:54.430Z,99.90
2023-05-22T20:18:04.166Z,99.90
2023-05-22T20:22:09.442Z,99.90
2023-05-22T20:26:16.398Z,99.90
2023-05-22T20:30:22.399Z,99.90
2023-05-22T20:34:44.858Z,99.90
2023-05-22T20:39:15.366Z,99.90
2023-05-22T20:44:09.488Z,99.90
2023-05-22T20:48:44.715Z,99.90
2023-05-22T20:53:13.155Z,99.90
2023-05-22T20:57:17.746Z,99.90
2023-05-22T21:01:20.683Z,99.90
2023-05-22T21:05:23.540Z,99.90
2023-05-22T21:09:26.309Z,99.90
2023-05-22T21:13:30.380Z,99.90
2023-05-22T21:17:33.719Z,99.90
2023-05-22T21:21:42.388Z,99.90
2023-05-22T21:25:45.880Z,99.90
2023-05-22T21:29:53.152Z,99.90
2023-05-22T21:33:56.558Z,99.90
2023-05-22T21:37:59.816Z,99.90
2023-05-22T21:42:04.236Z,99.90
2023-05-22T21:46:10.885Z,99.90
2023-05-22T21:50:13.940Z,99.90
2023-05-22T21:54:17.201Z,99.90
2023-05-22T21:58:20.489Z,99.90
2023-05-22T22:02:25.054Z,99.90
2023-05-22T22:06:28.255Z,99.90
2023-05-22T22:10:31.723Z,99.90
2023-05-22T22:14:34.932Z,99.90
2023-05-22T22:18:40.723Z,99.90
2023-05-22T22:22:45.063Z,99.90
2023-05-22T22:26:49.290Z,99.90
2023-05-22T22:30:55.358Z,99.90
2023-05-22T22:35:00.188Z,99.90
2023-05-22T22:39:04.634Z,99.90
2023-05-22T22:43:08.992Z,99.90
2023-05-22T22:47:14.905Z,99.90
2023-05-22T22:51:20.270Z,99.90
2023-05-22T22:55:24.729Z,99.90
2023-05-22T22:59:29.002Z,99.90
2023-05-22T23:03:32.428Z,99.90
2023-05-22T23:07:36.918Z,99.90
2023-05-22T23:11:42.129Z,99.90
2023-05-22T23:15:45.327Z,99.90
2023-05-22T23:19:48.277Z,99.90
2023-05-22T23:23:52.984Z,99.90
2023-05-22T23:27:55.935Z,99.90
2023-05-22T23:31:59.156Z,99.90
2023-05-22T23:36:02.123Z,99.90
2023-05-22T23:40:10.841Z,99.90
2023-05-22T23:44:14.173Z,99.90
2023-05-22T23:48:20.381Z,99.90
2023-05-22T23:56:32.264Z,99.90
